Terminal Aerodrome Forecast
Issued by NWS Northern Indiana

Home | Current Version | Previous Version | Graphics & Text | Print | Product List | Glossary On
Versions: 1 2 3 4 5 6 7 8 9 10 11 12 13 14 15
000
FTUS43 KIWX 170800 AAA
TAFFWA
TAF AMD
KFWA 170834Z 1709/1806 27015KT P6SM SCT008 OVC015
      TEMPO 1709/1710 4SM -FZDZSN OVC008
     FM171400 27013KT P6SM BKN020
     FM180000 27007KT P6SM BKN025=

USA.gov is the U.S. government's official web portal to all federal, state and local government web resources and services.